sensor_id;sensor_type;location;lat;lon;timestamp;P1;durP1;ratioP1;P2;durP2;ratioP2
9076;SDS011;4574;51.072;17.174;2023-02-01T00:01:35;3.77;;;1.10;;
9076;SDS011;4574;51.072;17.174;2023-02-01T00:04:05;2.03;;;1.03;;
9076;SDS011;4574;51.072;17.174;2023-02-01T00:06:33;1.80;;;0.90;;
9076;SDS011;4574;51.072;17.174;2023-02-01T00:09:02;1.37;;;0.80;;
9076;SDS011;4574;51.072;17.174;2023-02-01T00:11:30;1.83;;;0.80;;
9076;SDS011;4574;51.072;17.174;2023-02-01T00:13:58;2.03;;;0.97;;
9076;SDS011;4574;51.072;17.174;2023-02-01T00:16:27;2.07;;;1.20;;
9076;SDS011;4574;51.072;17.174;2023-02-01T00:18:57;2.37;;;1.03;;
9076;SDS011;4574;51.072;17.174;2023-02-01T00:21:29;2.30;;;1.03;;
9076;SDS011;4574;51.072;17.174;2023-02-01T00:23:59;2.50;;;0.97;;
9076;SDS011;4574;51.072;17.174;2023-02-01T00:26:30;4.30;;;1.10;;
9076;SDS011;4574;51.072;17.174;2023-02-01T00:29:02;4.27;;;1.43;;
9076;SDS011;4574;51.072;17.174;2023-02-01T00:31:31;4.83;;;1.00;;
9076;SDS011;4574;51.072;17.174;2023-02-01T00:33:59;4.33;;;1.23;;
9076;SDS011;4574;51.072;17.174;2023-02-01T00:36:29;2.17;;;1.07;;
9076;SDS011;4574;51.072;17.174;2023-02-01T00:38:57;1.90;;;1.10;;
9076;SDS011;4574;51.072;17.174;2023-02-01T00:41:26;4.37;;;1.17;;
9076;SDS011;4574;51.072;17.174;2023-02-01T00:43:54;4.77;;;1.30;;
9076;SDS011;4574;51.072;17.174;2023-02-01T00:46:23;3.33;;;1.23;;
9076;SDS011;4574;51.072;17.174;2023-02-01T00:48:52;2.70;;;1.20;;
9076;SDS011;4574;51.072;17.174;2023-02-01T00:51:21;2.70;;;1.33;;
9076;SDS011;4574;51.072;17.174;2023-02-01T00:53:53;6.57;;;1.70;;
9076;SDS011;4574;51.072;17.174;2023-02-01T00:56:22;5.60;;;1.93;;
9076;SDS011;4574;51.072;17.174;2023-02-01T00:58:50;2.23;;;1.23;;
9076;SDS011;4574;51.072;17.174;2023-02-01T01:01:19;2.93;;;1.43;;
9076;SDS011;4574;51.072;17.174;2023-02-01T01:03:50;3.20;;;1.50;;
9076;SDS011;4574;51.072;17.174;2023-02-01T01:06:21;2.73;;;1.27;;
9076;SDS011;4574;51.072;17.174;2023-02-01T01:08:51;4.07;;;1.33;;
9076;SDS011;4574;51.072;17.174;2023-02-01T01:11:21;4.50;;;1.40;;
9076;SDS011;4574;51.072;17.174;2023-02-01T01:13:51;6.67;;;1.93;;
9076;SDS011;4574;51.072;17.174;2023-02-01T01:16:21;6.67;;;1.53;;
9076;SDS011;4574;51.072;17.174;2023-02-01T01:18:51;11.00;;;2.13;;
9076;SDS011;4574;51.072;17.174;2023-02-01T01:21:20;5.80;;;1.80;;
9076;SDS011;4574;51.072;17.174;2023-02-01T01:23:48;8.23;;;1.63;;
9076;SDS011;4574;51.072;17.174;2023-02-01T01:26:19;5.90;;;1.80;;
9076;SDS011;4574;51.072;17.174;2023-02-01T01:28:50;10.53;;;2.43;;
9076;SDS011;4574;51.072;17.174;2023-02-01T01:31:19;8.93;;;1.73;;
9076;SDS011;4574;51.072;17.174;2023-02-01T01:33:48;4.40;;;2.20;;
9076;SDS011;4574;51.072;17.174;2023-02-01T01:36:18;6.10;;;1.77;;
9076;SDS011;4574;51.072;17.174;2023-02-01T01:38:47;6.23;;;1.60;;
9076;SDS011;4574;51.072;17.174;2023-02-01T01:41:16;3.77;;;1.73;;
9076;SDS011;4574;51.072;17.174;2023-02-01T01:43:52;4.13;;;1.40;;
9076;SDS011;4574;51.072;17.174;2023-02-01T01:46:23;6.93;;;1.40;;
9076;SDS011;4574;51.072;17.174;2023-02-01T01:48:54;2.47;;;1.27;;
9076;SDS011;4574;51.072;17.174;2023-02-01T01:51:29;3.40;;;1.10;;
9076;SDS011;4574;51.072;17.174;2023-02-01T01:54:00;5.33;;;1.40;;
9076;SDS011;4574;51.072;17.174;2023-02-01T01:56:34;2.20;;;1.10;;
9076;SDS011;4574;51.072;17.174;2023-02-01T01:59:04;2.07;;;1.20;;
9076;SDS011;4574;51.072;17.174;2023-02-01T02:01:34;1.57;;;1.10;;
9076;SDS011;4574;51.072;17.174;2023-02-01T02:04:03;4.73;;;1.00;;
9076;SDS011;4574;51.072;17.174;2023-02-01T02:06:39;4.00;;;1.40;;
9076;SDS011;4574;51.072;17.174;2023-02-01T02:09:14;4.13;;;1.83;;
9076;SDS011;4574;51.072;17.174;2023-02-01T02:11:43;4.40;;;1.43;;
9076;SDS011;4574;51.072;17.174;2023-02-01T02:14:14;5.30;;;1.20;;
9076;SDS011;4574;51.072;17.174;2023-02-01T02:16:47;4.03;;;1.30;;
9076;SDS011;4574;51.072;17.174;2023-02-01T02:22:33;3.07;;;1.30;;
9076;SDS011;4574;51.072;17.174;2023-02-01T02:25:24;6.93;;;1.80;;
9076;SDS011;4574;51.072;17.174;2023-02-01T02:28:11;7.60;;;1.70;;
9076;SDS011;4574;51.072;17.174;2023-02-01T02:31:03;7.77;;;1.80;;
9076;SDS011;4574;51.072;17.174;2023-02-01T02:33:54;4.43;;;1.67;;
9076;SDS011;4574;51.072;17.174;2023-02-01T02:36:34;3.70;;;2.03;;
9076;SDS011;4574;51.072;17.174;2023-02-01T02:39:11;9.63;;;1.90;;
9076;SDS011;4574;51.072;17.174;2023-02-01T02:41:50;6.67;;;1.87;;
9076;SDS011;4574;51.072;17.174;2023-02-01T02:44:45;12.00;;;2.90;;
9076;SDS011;4574;51.072;17.174;2023-02-01T02:47:35;7.37;;;1.90;;
9076;SDS011;4574;51.072;17.174;2023-02-01T02:50:15;6.77;;;2.17;;
9076;SDS011;4574;51.072;17.174;2023-02-01T02:53:09;9.70;;;2.23;;
9076;SDS011;4574;51.072;17.174;2023-02-01T02:55:58;6.50;;;2.20;;
9076;SDS011;4574;51.072;17.174;2023-02-01T02:58:46;10.57;;;2.67;;
9076;SDS011;4574;51.072;17.174;2023-02-01T03:01:33;5.63;;;2.33;;
9076;SDS011;4574;51.072;17.174;2023-02-01T03:04:19;8.13;;;2.30;;
9076;SDS011;4574;51.072;17.174;2023-02-01T03:06:51;9.27;;;2.70;;
9076;SDS011;4574;51.072;17.174;2023-02-01T03:09:22;6.80;;;2.37;;
9076;SDS011;4574;51.072;17.174;2023-02-01T03:11:55;6.27;;;2.33;;
9076;SDS011;4574;51.072;17.174;2023-02-01T03:14:48;11.83;;;2.30;;
9076;SDS011;4574;51.072;17.174;2023-02-01T03:17:21;8.50;;;1.70;;
9076;SDS011;4574;51.072;17.174;2023-02-01T03:19:54;9.27;;;2.83;;
9076;SDS011;4574;51.072;17.174;2023-02-01T03:22:29;9.67;;;2.20;;
9076;SDS011;4574;51.072;17.174;2023-02-01T03:25:01;5.53;;;1.90;;
9076;SDS011;4574;51.072;17.174;2023-02-01T03:27:34;7.93;;;2.87;;
9076;SDS011;4574;51.072;17.174;2023-02-01T03:30:06;13.57;;;2.57;;
9076;SDS011;4574;51.072;17.174;2023-02-01T03:32:37;10.27;;;2.33;;
9076;SDS011;4574;51.072;17.174;2023-02-01T03:35:39;11.57;;;2.37;;
9076;SDS011;4574;51.072;17.174;2023-02-01T03:38:13;6.07;;;2.07;;
9076;SDS011;4574;51.072;17.174;2023-02-01T03:40:48;5.70;;;1.83;;
9076;SDS011;4574;51.072;17.174;2023-02-01T03:43:21;11.40;;;2.30;;
9076;SDS011;4574;51.072;17.174;2023-02-01T03:45:54;6.73;;;1.93;;
9076;SDS011;4574;51.072;17.174;2023-02-01T03:48:29;10.13;;;2.43;;
9076;SDS011;4574;51.072;17.174;2023-02-01T03:51:00;4.97;;;1.93;;
9076;SDS011;4574;51.072;17.174;2023-02-01T03:53:32;6.43;;;1.80;;
9076;SDS011;4574;51.072;17.174;2023-02-01T03:56:04;11.53;;;2.60;;
9076;SDS011;4574;51.072;17.174;2023-02-01T03:58:34;7.23;;;2.13;;
9076;SDS011;4574;51.072;17.174;2023-02-01T04:01:03;4.87;;;2.00;;
9076;SDS011;4574;51.072;17.174;2023-02-01T04:03:31;10.10;;;2.63;;
9076;SDS011;4574;51.072;17.174;2023-02-01T04:06:02;7.17;;;2.80;;
9076;SDS011;4574;51.072;17.174;2023-02-01T04:08:30;7.20;;;2.03;;
9076;SDS011;4574;51.072;17.174;2023-02-01T04:10:58;10.73;;;2.20;;
9076;SDS011;4574;51.072;17.174;2023-02-01T04:13:30;10.50;;;2.40;;
9076;SDS011;4574;51.072;17.174;2023-02-01T04:15:58;9.97;;;2.50;;
9076;SDS011;4574;51.072;17.174;2023-02-01T04:18:27;12.67;;;3.07;;
9076;SDS011;4574;51.072;17.174;2023-02-01T04:20:55;5.30;;;2.20;;
9076;SDS011;4574;51.072;17.174;2023-02-01T04:23:25;9.13;;;2.03;;
9076;SDS011;4574;51.072;17.174;2023-02-01T04:25:55;8.00;;;2.10;;
9076;SDS011;4574;51.072;17.174;2023-02-01T04:28:27;14.30;;;2.67;;
9076;SDS011;4574;51.072;17.174;2023-02-01T04:30:56;9.87;;;2.50;;
9076;SDS011;4574;51.072;17.174;2023-02-01T04:33:25;9.77;;;2.33;;
9076;SDS011;4574;51.072;17.174;2023-02-01T04:35:54;6.97;;;2.07;;
9076;SDS011;4574;51.072;17.174;2023-02-01T04:38:22;14.10;;;2.10;;
9076;SDS011;4574;51.072;17.174;2023-02-01T04:40:52;10.67;;;2.03;;
9076;SDS011;4574;51.072;17.174;2023-02-01T04:43:21;10.63;;;2.63;;
9076;SDS011;4574;51.072;17.174;2023-02-01T04:45:49;9.20;;;2.10;;
9076;SDS011;4574;51.072;17.174;2023-02-01T04:48:21;11.83;;;2.87;;
9076;SDS011;4574;51.072;17.174;2023-02-01T04:50:50;6.23;;;2.07;;
9076;SDS011;4574;51.072;17.174;2023-02-01T04:53:19;9.53;;;2.63;;
9076;SDS011;4574;51.072;17.174;2023-02-01T04:55:47;7.10;;;2.40;;
9076;SDS011;4574;51.072;17.174;2023-02-01T04:58:18;12.33;;;2.70;;
9076;SDS011;4574;51.072;17.174;2023-02-01T05:00:46;7.90;;;2.37;;
9076;SDS011;4574;51.072;17.174;2023-02-01T05:03:16;7.43;;;2.43;;
9076;SDS011;4574;51.072;17.174;2023-02-01T05:05:44;7.83;;;2.53;;
9076;SDS011;4574;51.072;17.174;2023-02-01T05:08:15;13.43;;;2.40;;
9076;SDS011;4574;51.072;17.174;2023-02-01T05:10:44;11.97;;;2.87;;
9076;SDS011;4574;51.072;17.174;2023-02-01T05:13:13;6.40;;;2.00;;
9076;SDS011;4574;51.072;17.174;2023-02-01T05:16:00;9.13;;;1.90;;
9076;SDS011;4574;51.072;17.174;2023-02-01T05:18:28;12.77;;;2.40;;
9076;SDS011;4574;51.072;17.174;2023-02-01T05:20:57;7.53;;;2.30;;
9076;SDS011;4574;51.072;17.174;2023-02-01T05:23:26;5.17;;;2.10;;
9076;SDS011;4574;51.072;17.174;2023-02-01T05:25:57;7.60;;;1.97;;
9076;SDS011;4574;51.072;17.174;2023-02-01T05:28:27;11.30;;;2.23;;
9076;SDS011;4574;51.072;17.174;2023-02-01T05:30:56;6.73;;;2.43;;
9076;SDS011;4574;51.072;17.174;2023-02-01T05:33:26;5.00;;;1.90;;
9076;SDS011;4574;51.072;17.174;2023-02-01T05:35:54;7.43;;;2.33;;
9076;SDS011;4574;51.072;17.174;2023-02-01T05:38:23;8.53;;;2.20;;
9076;SDS011;4574;51.072;17.174;2023-02-01T05:40:51;5.13;;;1.73;;
9076;SDS011;4574;51.072;17.174;2023-02-01T05:43:20;8.87;;;2.50;;
9076;SDS011;4574;51.072;17.174;2023-02-01T05:45:48;6.77;;;1.80;;
9076;SDS011;4574;51.072;17.174;2023-02-01T05:48:17;6.47;;;2.10;;
9076;SDS011;4574;51.072;17.174;2023-02-01T05:50:47;10.30;;;2.40;;
9076;SDS011;4574;51.072;17.174;2023-02-01T05:53:15;11.60;;;2.60;;
9076;SDS011;4574;51.072;17.174;2023-02-01T05:55:44;7.73;;;2.53;;
9076;SDS011;4574;51.072;17.174;2023-02-01T05:58:13;9.37;;;2.57;;
9076;SDS011;4574;51.072;17.174;2023-02-01T06:00:42;7.60;;;2.50;;
9076;SDS011;4574;51.072;17.174;2023-02-01T06:03:10;10.17;;;2.47;;
9076;SDS011;4574;51.072;17.174;2023-02-01T06:05:39;7.77;;;2.40;;
9076;SDS011;4574;51.072;17.174;2023-02-01T06:08:09;8.23;;;2.20;;
9076;SDS011;4574;51.072;17.174;2023-02-01T06:10:37;14.57;;;2.67;;
9076;SDS011;4574;51.072;17.174;2023-02-01T06:13:06;6.50;;;2.20;;
9076;SDS011;4574;51.072;17.174;2023-02-01T06:15:35;5.37;;;1.83;;
9076;SDS011;4574;51.072;17.174;2023-02-01T06:18:04;10.50;;;2.20;;
9076;SDS011;4574;51.072;17.174;2023-02-01T06:20:33;6.53;;;2.30;;
9076;SDS011;4574;51.072;17.174;2023-02-01T06:23:01;8.20;;;2.87;;
9076;SDS011;4574;51.072;17.174;2023-02-01T06:25:33;8.40;;;2.70;;
9076;SDS011;4574;51.072;17.174;2023-02-01T06:28:01;7.70;;;2.00;;
9076;SDS011;4574;51.072;17.174;2023-02-01T06:30:32;9.17;;;2.20;;
9076;SDS011;4574;51.072;17.174;2023-02-01T06:33:01;7.30;;;2.20;;
9076;SDS011;4574;51.072;17.174;2023-02-01T06:35:29;10.93;;;2.07;;
9076;SDS011;4574;51.072;17.174;2023-02-01T06:37:58;5.67;;;2.07;;
9076;SDS011;4574;51.072;17.174;2023-02-01T06:40:26;5.57;;;2.20;;
9076;SDS011;4574;51.072;17.174;2023-02-01T06:42:56;9.87;;;2.33;;
9076;SDS011;4574;51.072;17.174;2023-02-01T06:45:25;8.33;;;1.93;;
9076;SDS011;4574;51.072;17.174;2023-02-01T06:47:53;8.83;;;2.40;;
9076;SDS011;4574;51.072;17.174;2023-02-01T06:50:22;8.97;;;2.63;;
9076;SDS011;4574;51.072;17.174;2023-02-01T06:52:50;9.17;;;2.40;;
9076;SDS011;4574;51.072;17.174;2023-02-01T06:55:22;10.70;;;2.37;;
9076;SDS011;4574;51.072;17.174;2023-02-01T06:57:52;12.87;;;2.50;;
9076;SDS011;4574;51.072;17.174;2023-02-01T07:00:23;9.90;;;2.27;;
9076;SDS011;4574;51.072;17.174;2023-02-01T07:02:52;7.50;;;2.40;;
9076;SDS011;4574;51.072;17.174;2023-02-01T07:05:20;11.17;;;2.57;;
9076;SDS011;4574;51.072;17.174;2023-02-01T07:07:49;6.80;;;2.50;;
9076;SDS011;4574;51.072;17.174;2023-02-01T07:10:18;5.73;;;2.17;;
9076;SDS011;4574;51.072;17.174;2023-02-01T07:12:47;10.60;;;2.30;;
9076;SDS011;4574;51.072;17.174;2023-02-01T07:15:15;8.37;;;2.47;;
9076;SDS011;4574;51.072;17.174;2023-02-01T07:17:45;9.23;;;2.30;;
9076;SDS011;4574;51.072;17.174;2023-02-01T07:20:15;8.80;;;2.67;;
9076;SDS011;4574;51.072;17.174;2023-02-01T07:22:44;9.23;;;2.60;;
9076;SDS011;4574;51.072;17.174;2023-02-01T07:25:13;7.93;;;2.30;;
9076;SDS011;4574;51.072;17.174;2023-02-01T07:27:41;7.80;;;2.23;;
9076;SDS011;4574;51.072;17.174;2023-02-01T07:30:10;4.63;;;1.60;;
9076;SDS011;4574;51.072;17.174;2023-02-01T07:32:40;9.80;;;2.13;;
9076;SDS011;4574;51.072;17.174;2023-02-01T07:35:10;6.97;;;2.07;;
9076;SDS011;4574;51.072;17.174;2023-02-01T07:37:40;10.67;;;2.20;;
9076;SDS011;4574;51.072;17.174;2023-02-01T07:40:09;7.73;;;2.97;;
9076;SDS011;4574;51.072;17.174;2023-02-01T07:42:39;7.77;;;2.13;;
9076;SDS011;4574;51.072;17.174;2023-02-01T07:45:08;9.53;;;2.53;;
9076;SDS011;4574;51.072;17.174;2023-02-01T07:47:46;6.77;;;2.27;;
9076;SDS011;4574;51.072;17.174;2023-02-01T07:50:17;11.23;;;2.57;;
9076;SDS011;4574;51.072;17.174;2023-02-01T07:52:45;6.83;;;2.00;;
9076;SDS011;4574;51.072;17.174;2023-02-01T07:55:14;10.90;;;2.47;;
9076;SDS011;4574;51.072;17.174;2023-02-01T07:57:42;11.97;;;2.47;;
9076;SDS011;4574;51.072;17.174;2023-02-01T08:00:11;7.13;;;2.33;;
9076;SDS011;4574;51.072;17.174;2023-02-01T08:02:58;8.03;;;2.30;;
9076;SDS011;4574;51.072;17.174;2023-02-01T08:05:29;7.80;;;2.67;;
9076;SDS011;4574;51.072;17.174;2023-02-01T08:07:57;7.57;;;2.43;;
9076;SDS011;4574;51.072;17.174;2023-02-01T08:10:26;8.67;;;2.50;;
9076;SDS011;4574;51.072;17.174;2023-02-01T08:12:57;7.40;;;2.00;;
9076;SDS011;4574;51.072;17.174;2023-02-01T08:15:26;10.57;;;2.57;;
9076;SDS011;4574;51.072;17.174;2023-02-01T08:17:55;5.87;;;2.10;;
9076;SDS011;4574;51.072;17.174;2023-02-01T08:20:25;10.23;;;2.43;;
9076;SDS011;4574;51.072;17.174;2023-02-01T08:22:55;8.73;;;1.80;;
9076;SDS011;4574;51.072;17.174;2023-02-01T08:25:24;8.17;;;2.60;;
9076;SDS011;4574;51.072;17.174;2023-02-01T08:27:54;7.30;;;2.17;;
9076;SDS011;4574;51.072;17.174;2023-02-01T08:30:22;9.37;;;2.27;;
9076;SDS011;4574;51.072;17.174;2023-02-01T08:32:51;7.30;;;2.10;;
9076;SDS011;4574;51.072;17.174;2023-02-01T08:35:20;7.70;;;2.40;;
9076;SDS011;4574;51.072;17.174;2023-02-01T08:38:00;5.80;;;2.37;;
9076;SDS011;4574;51.072;17.174;2023-02-01T08:40:28;10.63;;;2.87;;
9076;SDS011;4574;51.072;17.174;2023-02-01T08:42:57;8.47;;;2.10;;
9076;SDS011;4574;51.072;17.174;2023-02-01T08:45:27;8.27;;;2.63;;
9076;SDS011;4574;51.072;17.174;2023-02-01T08:47:57;6.93;;;2.30;;
9076;SDS011;4574;51.072;17.174;2023-02-01T08:50:25;7.93;;;2.10;;
9076;SDS011;4574;51.072;17.174;2023-02-01T08:52:54;7.37;;;2.40;;
9076;SDS011;4574;51.072;17.174;2023-02-01T08:55:24;9.63;;;2.43;;
9076;SDS011;4574;51.072;17.174;2023-02-01T08:57:55;12.77;;;2.53;;
9076;SDS011;4574;51.072;17.174;2023-02-01T09:00:24;9.27;;;3.07;;
9076;SDS011;4574;51.072;17.174;2023-02-01T09:02:52;10.40;;;3.63;;
9076;SDS011;4574;51.072;17.174;2023-02-01T09:05:21;6.63;;;2.17;;
9076;SDS011;4574;51.072;17.174;2023-02-01T09:08:06;6.10;;;2.27;;
9076;SDS011;4574;51.072;17.174;2023-02-01T09:10:36;10.90;;;2.70;;
9076;SDS011;4574;51.072;17.174;2023-02-01T09:13:05;8.77;;;2.67;;
9076;SDS011;4574;51.072;17.174;2023-02-01T09:15:34;9.40;;;2.53;;
9076;SDS011;4574;51.072;17.174;2023-02-01T09:18:03;9.13;;;2.30;;
9076;SDS011;4574;51.072;17.174;2023-02-01T09:20:32;10.60;;;2.70;;
9076;SDS011;4574;51.072;17.174;2023-02-01T09:23:00;13.60;;;3.73;;
9076;SDS011;4574;51.072;17.174;2023-02-01T09:25:29;11.30;;;2.47;;
9076;SDS011;4574;51.072;17.174;2023-02-01T09:27:59;6.77;;;2.40;;
9076;SDS011;4574;51.072;17.174;2023-02-01T09:30:27;5.03;;;1.80;;
9076;SDS011;4574;51.072;17.174;2023-02-01T09:32:56;7.70;;;2.93;;
9076;SDS011;4574;51.072;17.174;2023-02-01T09:35:25;8.80;;;2.70;;
9076;SDS011;4574;51.072;17.174;2023-02-01T09:37:53;6.37;;;2.87;;
9076;SDS011;4574;51.072;17.174;2023-02-01T09:40:22;6.87;;;2.40;;
9076;SDS011;4574;51.072;17.174;2023-02-01T09:43:03;5.10;;;1.90;;
9076;SDS011;4574;51.072;17.174;2023-02-01T09:45:51;7.20;;;2.37;;
9076;SDS011;4574;51.072;17.174;2023-02-01T09:48:28;5.33;;;2.00;;
9076;SDS011;4574;51.072;17.174;2023-02-01T09:51:02;5.97;;;2.43;;
9076;SDS011;4574;51.072;17.174;2023-02-01T09:53:35;6.13;;;2.23;;
9076;SDS011;4574;51.072;17.174;2023-02-01T09:56:10;5.50;;;1.97;;
9076;SDS011;4574;51.072;17.174;2023-02-01T09:58:44;4.83;;;1.93;;
9076;SDS011;4574;51.072;17.174;2023-02-01T10:01:17;4.30;;;2.23;;
9076;SDS011;4574;51.072;17.174;2023-02-01T10:03:49;4.00;;;2.17;;
9076;SDS011;4574;51.072;17.174;2023-02-01T10:06:24;5.33;;;1.87;;
9076;SDS011;4574;51.072;17.174;2023-02-01T10:09:08;2.40;;;1.67;;
9076;SDS011;4574;51.072;17.174;2023-02-01T10:11:56;4.20;;;1.80;;
9076;SDS011;4574;51.072;17.174;2023-02-01T10:14:49;5.83;;;2.50;;
9076;SDS011;4574;51.072;17.174;2023-02-01T10:17:30;7.53;;;2.00;;
9076;SDS011;4574;51.072;17.174;2023-02-01T10:20:14;5.00;;;2.43;;
9076;SDS011;4574;51.072;17.174;2023-02-01T10:22:51;8.43;;;2.30;;
9076;SDS011;4574;51.072;17.174;2023-02-01T10:25:50;4.83;;;2.07;;
9076;SDS011;4574;51.072;17.174;2023-02-01T10:28:22;8.20;;;2.17;;
9076;SDS011;4574;51.072;17.174;2023-02-01T10:30:54;8.93;;;1.93;;
9076;SDS011;4574;51.072;17.174;2023-02-01T10:33:27;3.70;;;1.90;;
9076;SDS011;4574;51.072;17.174;2023-02-01T10:36:03;4.07;;;2.10;;
9076;SDS011;4574;51.072;17.174;2023-02-01T10:38:40;6.87;;;2.10;;
9076;SDS011;4574;51.072;17.174;2023-02-01T10:41:10;7.60;;;2.03;;
9076;SDS011;4574;51.072;17.174;2023-02-01T10:43:43;4.83;;;2.53;;
9076;SDS011;4574;51.072;17.174;2023-02-01T10:46:15;6.33;;;1.93;;
9076;SDS011;4574;51.072;17.174;2023-02-01T10:48:44;5.03;;;1.77;;
9076;SDS011;4574;51.072;17.174;2023-02-01T10:51:14;4.87;;;2.30;;
9076;SDS011;4574;51.072;17.174;2023-02-01T10:53:49;5.97;;;2.07;;
9076;SDS011;4574;51.072;17.174;2023-02-01T10:56:22;7.87;;;2.30;;
9076;SDS011;4574;51.072;17.174;2023-02-01T10:58:59;5.77;;;2.40;;
9076;SDS011;4574;51.072;17.174;2023-02-01T11:01:30;8.13;;;2.00;;
9076;SDS011;4574;51.072;17.174;2023-02-01T11:04:02;5.13;;;2.20;;
9076;SDS011;4574;51.072;17.174;2023-02-01T11:06:32;6.70;;;2.40;;
9076;SDS011;4574;51.072;17.174;2023-02-01T11:09:09;5.83;;;2.20;;
9076;SDS011;4574;51.072;17.174;2023-02-01T11:11:52;5.17;;;2.33;;
9076;SDS011;4574;51.072;17.174;2023-02-01T11:14:26;3.47;;;1.77;;
9076;SDS011;4574;51.072;17.174;2023-02-01T11:17:03;8.87;;;2.40;;
9076;SDS011;4574;51.072;17.174;2023-02-01T11:19:46;10.17;;;2.20;;
9076;SDS011;4574;51.072;17.174;2023-02-01T11:22:15;6.47;;;2.20;;
9076;SDS011;4574;51.072;17.174;2023-02-01T11:24:44;7.63;;;2.90;;
9076;SDS011;4574;51.072;17.174;2023-02-01T11:27:14;4.53;;;2.63;;
9076;SDS011;4574;51.072;17.174;2023-02-01T11:29:54;4.77;;;2.30;;
9076;SDS011;4574;51.072;17.174;2023-02-01T11:32:28;3.57;;;1.90;;
9076;SDS011;4574;51.072;17.174;2023-02-01T11:34:59;6.67;;;2.23;;
9076;SDS011;4574;51.072;17.174;2023-02-01T11:37:31;4.87;;;2.00;;
9076;SDS011;4574;51.072;17.174;2023-02-01T11:40:22;3.53;;;1.97;;
9076;SDS011;4574;51.072;17.174;2023-02-01T11:42:54;6.03;;;1.97;;
9076;SDS011;4574;51.072;17.174;2023-02-01T11:45:25;5.97;;;2.30;;
9076;SDS011;4574;51.072;17.174;2023-02-01T11:47:57;4.87;;;1.83;;
9076;SDS011;4574;51.072;17.174;2023-02-01T11:50:33;3.97;;;1.60;;
9076;SDS011;4574;51.072;17.174;2023-02-01T11:56:08;3.13;;;1.47;;
9076;SDS011;4574;51.072;17.174;2023-02-01T11:58:49;6.47;;;1.57;;
9076;SDS011;4574;51.072;17.174;2023-02-01T12:01:50;2.80;;;1.50;;
9076;SDS011;4574;51.072;17.174;2023-02-01T12:07:36;3.50;;;2.10;;
9076;SDS011;4574;51.072;17.174;2023-02-01T12:10:24;4.67;;;2.03;;
9076;SDS011;4574;51.072;17.174;2023-02-01T12:13:05;2.57;;;1.77;;
9076;SDS011;4574;51.072;17.174;2023-02-01T12:15:53;3.20;;;2.00;;
9076;SDS011;4574;51.072;17.174;2023-02-01T12:18:41;4.00;;;1.90;;
9076;SDS011;4574;51.072;17.174;2023-02-01T12:24:43;3.37;;;2.00;;
9076;SDS011;4574;51.072;17.174;2023-02-01T12:27:32;3.90;;;2.00;;
9076;SDS011;4574;51.072;17.174;2023-02-01T12:33:27;4.30;;;1.53;;
9076;SDS011;4574;51.072;17.174;2023-02-01T12:36:07;5.57;;;1.77;;
9076;SDS011;4574;51.072;17.174;2023-02-01T12:38:49;2.40;;;1.73;;
9076;SDS011;4574;51.072;17.174;2023-02-01T12:44:26;1.97;;;1.67;;
9076;SDS011;4574;51.072;17.174;2023-02-01T12:47:01;2.27;;;1.70;;
9076;SDS011;4574;51.072;17.174;2023-02-01T12:49:38;2.77;;;1.90;;
9076;SDS011;4574;51.072;17.174;2023-02-01T12:52:14;1.70;;;1.60;;
9076;SDS011;4574;51.072;17.174;2023-02-01T12:54:52;2.33;;;1.47;;
9076;SDS011;4574;51.072;17.174;2023-02-01T12:57:27;2.03;;;1.83;;
9076;SDS011;4574;51.072;17.174;2023-02-01T13:00:05;2.40;;;1.53;;
9076;SDS011;4574;51.072;17.174;2023-02-01T13:02:42;3.27;;;1.80;;
9076;SDS011;4574;51.072;17.174;2023-02-01T13:05:19;3.37;;;1.70;;
9076;SDS011;4574;51.072;17.174;2023-02-01T13:07:52;3.43;;;2.23;;
9076;SDS011;4574;51.072;17.174;2023-02-01T13:10:30;2.17;;;1.60;;
9076;SDS011;4574;51.072;17.174;2023-02-01T13:13:04;3.60;;;2.07;;
9076;SDS011;4574;51.072;17.174;2023-02-01T13:15:40;2.60;;;1.70;;
9076;SDS011;4574;51.072;17.174;2023-02-01T13:18:13;5.50;;;1.67;;
9076;SDS011;4574;51.072;17.174;2023-02-01T13:20:47;2.90;;;1.90;;
9076;SDS011;4574;51.072;17.174;2023-02-01T13:23:26;2.37;;;1.50;;
9076;SDS011;4574;51.072;17.174;2023-02-01T13:25:57;5.20;;;2.20;;
9076;SDS011;4574;51.072;17.174;2023-02-01T13:28:28;2.43;;;2.00;;
9076;SDS011;4574;51.072;17.174;2023-02-01T13:31:21;6.33;;;2.40;;
9076;SDS011;4574;51.072;17.174;2023-02-01T13:34:04;3.77;;;1.90;;
9076;SDS011;4574;51.072;17.174;2023-02-01T13:37:18;2.57;;;1.90;;
9076;SDS011;4574;51.072;17.174;2023-02-01T13:40:04;4.10;;;2.20;;
9076;SDS011;4574;51.072;17.174;2023-02-01T13:42:53;5.77;;;2.80;;
9076;SDS011;4574;51.072;17.174;2023-02-01T13:45:25;3.60;;;1.90;;
9076;SDS011;4574;51.072;17.174;2023-02-01T13:47:58;3.87;;;2.10;;
9076;SDS011;4574;51.072;17.174;2023-02-01T13:50:31;6.03;;;2.07;;
9076;SDS011;4574;51.072;17.174;2023-02-01T13:53:04;3.27;;;2.00;;
9076;SDS011;4574;51.072;17.174;2023-02-01T13:55:45;3.57;;;2.10;;
9076;SDS011;4574;51.072;17.174;2023-02-01T13:58:21;3.60;;;1.97;;
9076;SDS011;4574;51.072;17.174;2023-02-01T14:04:01;4.93;;;1.80;;
9076;SDS011;4574;51.072;17.174;2023-02-01T14:06:42;3.47;;;1.70;;
9076;SDS011;4574;51.072;17.174;2023-02-01T14:09:14;2.27;;;1.77;;
9076;SDS011;4574;51.072;17.174;2023-02-01T14:11:58;3.10;;;2.50;;
9076;SDS011;4574;51.072;17.174;2023-02-01T14:15:19;4.00;;;1.70;;
9076;SDS011;4574;51.072;17.174;2023-02-01T14:17:51;3.07;;;2.03;;
9076;SDS011;4574;51.072;17.174;2023-02-01T14:23:16;5.20;;;2.10;;
9076;SDS011;4574;51.072;17.174;2023-02-01T14:26:05;3.07;;;1.90;;
9076;SDS011;4574;51.072;17.174;2023-02-01T14:28:38;5.47;;;2.20;;
9076;SDS011;4574;51.072;17.174;2023-02-01T14:31:16;3.93;;;1.77;;
9076;SDS011;4574;51.072;17.174;2023-02-01T14:33:56;4.17;;;1.80;;
9076;SDS011;4574;51.072;17.174;2023-02-01T14:36:39;2.90;;;1.53;;
9076;SDS011;4574;51.072;17.174;2023-02-01T14:39:25;4.50;;;2.00;;
9076;SDS011;4574;51.072;17.174;2023-02-01T14:41:57;7.60;;;2.87;;
9076;SDS011;4574;51.072;17.174;2023-02-01T14:44:29;5.93;;;2.23;;
9076;SDS011;4574;51.072;17.174;2023-02-01T14:53:01;5.70;;;2.30;;
9076;SDS011;4574;51.072;17.174;2023-02-01T14:55:40;3.37;;;2.07;;
9076;SDS011;4574;51.072;17.174;2023-02-01T14:58:15;4.00;;;2.40;;
9076;SDS011;4574;51.072;17.174;2023-02-01T15:00:54;6.63;;;2.23;;
9076;SDS011;4574;51.072;17.174;2023-02-01T15:03:36;5.17;;;2.57;;
9076;SDS011;4574;51.072;17.174;2023-02-01T15:09:00;4.60;;;2.10;;
9076;SDS011;4574;51.072;17.174;2023-02-01T15:11:31;3.63;;;2.57;;
9076;SDS011;4574;51.072;17.174;2023-02-01T15:14:00;7.90;;;2.53;;
9076;SDS011;4574;51.072;17.174;2023-02-01T15:16:28;2.77;;;1.80;;
9076;SDS011;4574;51.072;17.174;2023-02-01T15:19:09;4.77;;;2.20;;
9076;SDS011;4574;51.072;17.174;2023-02-01T15:21:44;7.93;;;2.73;;
9076;SDS011;4574;51.072;17.174;2023-02-01T15:24:17;5.63;;;2.20;;
9076;SDS011;4574;51.072;17.174;2023-02-01T15:26:48;2.43;;;1.77;;
9076;SDS011;4574;51.072;17.174;2023-02-01T15:29:17;4.47;;;2.10;;
9076;SDS011;4574;51.072;17.174;2023-02-01T15:31:48;3.27;;;2.43;;
9076;SDS011;4574;51.072;17.174;2023-02-01T15:34:20;5.30;;;2.07;;
9076;SDS011;4574;51.072;17.174;2023-02-01T15:36:49;5.27;;;2.60;;
9076;SDS011;4574;51.072;17.174;2023-02-01T15:39:29;3.83;;;2.10;;
9076;SDS011;4574;51.072;17.174;2023-02-01T15:41:59;6.73;;;2.03;;
9076;SDS011;4574;51.072;17.174;2023-02-01T15:44:37;4.73;;;2.43;;
9076;SDS011;4574;51.072;17.174;2023-02-01T15:47:12;6.80;;;2.33;;
9076;SDS011;4574;51.072;17.174;2023-02-01T15:49:46;5.03;;;2.43;;
9076;SDS011;4574;51.072;17.174;2023-02-01T15:52:22;3.87;;;2.20;;
9076;SDS011;4574;51.072;17.174;2023-02-01T15:54:55;8.70;;;2.60;;
9076;SDS011;4574;51.072;17.174;2023-02-01T15:57:27;5.33;;;3.50;;
9076;SDS011;4574;51.072;17.174;2023-02-01T15:59:58;6.87;;;2.73;;
9076;SDS011;4574;51.072;17.174;2023-02-01T16:02:32;7.23;;;2.90;;
9076;SDS011;4574;51.072;17.174;2023-02-01T16:05:21;5.70;;;2.73;;
9076;SDS011;4574;51.072;17.174;2023-02-01T16:07:57;7.07;;;2.63;;
9076;SDS011;4574;51.072;17.174;2023-02-01T16:10:31;4.33;;;2.13;;
9076;SDS011;4574;51.072;17.174;2023-02-01T16:13:05;4.20;;;2.53;;